Time;durP1;ratioP1;P1;durP2;ratioP2;P2;SDS_P1;SDS_P2;PMS_P1;PMS_P2;Temp;Humidity;BMP_temperature;BMP_pressure;BME280_temperature;BME280_humidity;BME280_pressure;Samples;Min_cycle;Max_cycle;Signal;HPM_P1;HPM_P2
2023/10/06 00:00:19;;;;;;;4.62;1.67;;;13.00;63.70;;;;;;2341404;53;21012;-69
2023/10/06 00:02:48;;;;;;;6.22;1.70;;;13.00;63.90;;;;;;2341342;53;21079;-67
2023/10/06 00:05:14;;;;;;;4.10;1.60;;;12.90;63.80;;;;;;2587294;52;21865;-67
2023/10/06 00:07:40;;;;;;;3.55;1.27;;;12.90;63.80;;;;;;2341596;53;21473;-69
2023/10/06 00:10:16;;;;;;;3.67;1.55;;;12.90;63.80;;;;;;2587308;52;20929;-66
2023/10/06 00:12:50;;;;;;;3.92;1.60;;;12.90;63.90;;;;;;2341464;53;21004;-68
2023/10/06 00:15:26;;;;;;;4.45;1.50;;;12.90;64.00;;;;;;2344667;53;20928;-70
2023/10/06 00:18:07;;;;;;;3.80;1.33;;;12.80;64.00;;;;;;2603321;52;20973;-69
2023/10/06 00:20:42;;;;;;;5.25;1.60;;;12.80;63.80;;;;;;2340252;53;21104;-68
2023/10/06 00:23:14;;;;;;;3.05;1.37;;;12.80;63.80;;;;;;2621086;52;20910;-68
2023/10/06 00:25:44;;;;;;;6.55;1.80;;;12.80;63.90;;;;;;2592562;52;20998;-69
2023/10/06 00:28:19;;;;;;;3.58;1.20;;;12.60;63.80;;;;;;2619029;52;20997;-68
2023/10/06 00:30:47;;;;;;;4.22;1.70;;;12.70;64.60;;;;;;2619675;52;20922;-69
2023/10/06 00:33:17;;;;;;;3.47;1.42;;;12.70;64.00;;;;;;2367412;53;21297;-69
2023/10/06 00:35:44;;;;;;;4.25;1.45;;;12.70;64.00;;;;;;2368316;53;21000;-69
2023/10/06 00:38:16;;;;;;;3.75;1.40;;;12.70;64.00;;;;;;2367368;53;21558;-69
2023/10/06 00:40:51;;;;;;;3.37;1.35;;;12.60;64.00;;;;;;2620691;52;21536;-69
2023/10/06 00:43:34;;;;;;;4.25;1.35;;;12.60;64.00;;;;;;2620050;52;20931;-69
2023/10/06 00:46:11;;;;;;;3.33;1.30;;;12.60;63.80;;;;;;2363603;53;20982;-69
2023/10/06 00:48:44;;;;;;;3.70;1.25;;;12.50;63.90;;;;;;2606380;52;20912;-70
2023/10/06 00:51:22;;;;;;;3.75;1.35;;;12.50;63.90;;;;;;2340339;54;21017;-68
2023/10/06 00:53:52;;;;;;;4.70;1.60;;;12.50;63.90;;;;;;2342031;54;20961;-69
2023/10/06 00:56:23;;;;;;;3.17;1.30;;;12.50;64.00;;;;;;2587037;52;20941;-70
2023/10/06 00:58:49;;;;;;;3.15;1.10;;;12.50;64.20;;;;;;2620766;52;20903;-69
2023/10/06 01:01:19;;;;;;;3.67;1.30;;;12.50;64.10;;;;;;2591798;52;21073;-69
2023/10/06 01:04:10;;;;;;;3.22;1.02;;;12.50;64.10;;;;;;2345699;53;20993;-68
2023/10/06 01:06:38;;;;;;;4.47;1.30;;;12.50;64.10;;;;;;2620575;52;20918;-69
2023/10/06 01:09:15;;;;;;;4.28;1.30;;;12.40;63.90;;;;;;2368450;53;21027;-69
2023/10/06 01:11:45;;;;;;;4.07;1.37;;;12.40;63.90;;;;;;2336777;54;20936;-69
2023/10/06 01:14:21;;;;;;;4.62;1.52;;;12.40;64.00;;;;;;2586250;52;21081;-68
2023/10/06 01:16:50;;;;;;;4.03;1.25;;;12.30;64.00;;;;;;2340553;53;21018;-69
2023/10/06 01:19:26;;;;;;;3.67;1.37;;;12.30;64.00;;;;;;2340729;53;20974;-69
2023/10/06 01:21:55;;;;;;;3.45;1.42;;;12.30;64.00;;;;;;2340693;53;21712;-69
2023/10/06 01:24:25;;;;;;;4.40;1.70;;;12.30;64.00;;;;;;2586413;52;20919;-70
2023/10/06 01:27:22;;;;;;;5.65;2.05;;;12.30;64.10;;;;;;2341173;53;20940;-68
2023/10/06 01:29:53;;;;;;;4.03;1.45;;;12.20;64.50;;;;;;2341296;53;21708;-68
2023/10/06 01:32:19;;;;;;;4.03;1.50;;;12.30;64.20;;;;;;2585757;52;20905;-68
2023/10/06 01:34:46;;;;;;;4.97;1.48;;;12.20;64.20;;;;;;2340634;53;21413;-69
2023/10/06 01:37:13;;;;;;;3.62;1.60;;;12.20;64.20;;;;;;2340756;53;21085;-70
2023/10/06 01:39:40;;;;;;;4.05;1.40;;;12.30;64.30;;;;;;2586627;52;20993;-69
2023/10/06 01:42:07;;;;;;;4.32;1.50;;;12.20;64.20;;;;;;2597923;52;20942;-68
2023/10/06 01:44:37;;;;;;;3.10;1.17;;;12.10;64.10;;;;;;2368493;53;22077;-68
2023/10/06 01:47:04;;;;;;;4.05;1.30;;;12.10;64.10;;;;;;2620891;52;20931;-69
2023/10/06 01:49:31;;;;;;;5.25;1.60;;;12.10;64.10;;;;;;2620107;52;21009;-69
2023/10/06 01:51:57;;;;;;;4.57;1.52;;;12.10;64.10;;;;;;2368080;53;20914;-68
2023/10/06 01:54:34;;;;;;;3.83;1.35;;;12.10;64.10;;;;;;2368471;53;20931;-69
2023/10/06 01:57:06;;;;;;;3.22;1.30;;;12.10;64.20;;;;;;2368987;53;20942;-69
2023/10/06 01:59:33;;;;;;;3.40;1.17;;;12.10;64.10;;;;;;2620939;52;21791;-67
2023/10/06 02:02:01;;;;;;;3.30;1.30;;;12.00;64.10;;;;;;2620479;52;21022;-67
2023/10/06 02:04:38;;;;;;;2.97;1.15;;;12.00;64.10;;;;;;2616656;52;21654;-67
2023/10/06 02:07:09;;;;;;;4.70;1.37;;;12.00;64.10;;;;;;2368398;53;21010;-70
2023/10/06 02:09:37;;;;;;;3.55;1.27;;;12.00;64.20;;;;;;2367304;53;20999;-69
2023/10/06 02:12:04;;;;;;;4.30;1.45;;;12.00;64.20;;;;;;2368555;53;20926;-70
2023/10/06 02:14:31;;;;;;;3.30;1.37;;;11.90;64.00;;;;;;2368506;53;20998;-68
2023/10/06 02:17:04;;;;;;;3.22;1.48;;;11.90;64.10;;;;;;2620418;52;21052;-70
2023/10/06 02:19:32;;;;;;;3.45;1.50;;;11.90;64.20;;;;;;2368724;53;20930;-67
2023/10/06 02:21:59;;;;;;;3.72;1.50;;;11.90;64.30;;;;;;2619448;52;20931;-69
2023/10/06 02:24:25;;;;;;;3.42;1.40;;;11.90;64.30;;;;;;2346286;53;20910;-68
2023/10/06 02:26:59;;;;;;;3.42;1.30;;;11.90;64.30;;;;;;2620507;52;21021;-69
2023/10/06 02:29:26;;;;;;;4.60;1.40;;;11.90;64.20;;;;;;2364503;53;20991;-69
2023/10/06 02:32:06;;;;;;;4.05;1.40;;;11.90;64.10;;;;;;2601269;52;21507;-69
2023/10/06 02:34:38;;;;;;;3.58;1.30;;;11.80;64.00;;;;;;2348231;53;20998;-69
2023/10/06 02:37:08;;;;;;;2.67;0.98;;;11.80;63.90;;;;;;2368443;53;20954;-68
2023/10/06 02:39:37;;;;;;;3.17;1.20;;;11.80;64.00;;;;;;2368236;53;20997;-69
2023/10/06 02:42:13;;;;;;;3.90;1.37;;;11.70;64.00;;;;;;2595950;52;21006;-68
2023/10/06 02:44:41;;;;;;;3.78;1.60;;;11.70;64.10;;;;;;2367460;53;21053;-69
2023/10/06 02:47:11;;;;;;;4.12;1.23;;;11.70;64.20;;;;;;2621326;52;20954;-69
2023/10/06 02:49:40;;;;;;;3.83;1.27;;;11.70;64.20;;;;;;2620839;52;20918;-69
2023/10/06 02:52:30;;;;;;;3.35;1.27;;;11.70;64.20;;;;;;2368615;53;21013;-69
2023/10/06 02:55:06;;;;;;;5.18;1.27;;;11.70;64.20;;;;;;2621029;52;21435;-69
2023/10/06 02:57:34;;;;;;;3.85;1.30;;;11.70;64.20;;;;;;2368381;53;21452;-70
2023/10/06 03:02:55;;;;;;;5.75;2.03;;;11.60;64.30;;;;;;2369117;53;21058;-69
2023/10/06 03:05:31;;;;;;;4.50;1.70;;;11.60;64.30;;;;;;2606495;52;20994;-68
2023/10/06 03:08:01;;;;;;;6.15;1.48;;;11.60;64.30;;;;;;2608945;52;20926;-69
2023/10/06 03:10:31;;;;;;;3.55;1.45;;;11.60;64.30;;;;;;2621168;52;21002;-69
2023/10/06 03:12:57;;;;;;;3.20;1.15;;;11.60;64.30;;;;;;2368705;53;20970;-69
2023/10/06 03:15:35;;;;;;;3.60;1.33;;;11.60;64.30;;;;;;2369185;53;20962;-71
2023/10/06 03:18:03;;;;;;;3.12;1.30;;;11.60;64.30;;;;;;2368504;53;20942;-69
2023/10/06 03:20:40;;;;;;;3.58;1.17;;;11.50;64.20;;;;;;2621296;52;21427;-69
2023/10/06 03:23:26;;;;;;;3.08;1.23;;;11.50;64.20;;;;;;2620945;52;20970;-69
2023/10/06 03:25:53;;;;;;;4.53;1.60;;;11.50;64.10;;;;;;2599105;52;21927;-69
2023/10/06 03:28:25;;;;;;;4.30;1.52;;;11.50;64.10;;;;;;2343899;53;21023;-70
2023/10/06 03:30:52;;;;;;;5.43;1.98;;;11.50;64.20;;;;;;2621293;52;21851;-69
2023/10/06 03:33:23;;;;;;;4.32;1.65;;;11.50;64.20;;;;;;2368697;53;20971;-68
2023/10/06 03:35:49;;;;;;;3.30;1.40;;;11.40;64.20;;;;;;2369670;53;20926;-69
2023/10/06 03:41:25;;;;;;;5.53;1.48;;;11.40;64.30;;;;;;2368778;53;20986;-69
2023/10/06 03:43:55;;;;;;;3.83;1.60;;;11.40;64.40;;;;;;2621347;52;20938;-69
2023/10/06 03:46:24;;;;;;;3.67;1.48;;;11.40;64.40;;;;;;2368929;53;20965;-69
2023/10/06 03:48:51;;;;;;;4.00;1.33;;;11.40;64.40;;;;;;2621894;52;21728;-68
2023/10/06 03:51:21;;;;;;;2.97;1.35;;;11.30;64.30;;;;;;2368350;53;20974;-69
2023/10/06 03:53:48;;;;;;;4.00;1.45;;;11.30;64.20;;;;;;2600578;52;21000;-68
2023/10/06 03:56:18;;;;;;;3.53;1.42;;;11.30;64.30;;;;;;2340481;53;20929;-67
2023/10/06 03:58:45;;;;;;;4.65;1.65;;;11.30;64.40;;;;;;2587021;52;21418;-66
2023/10/06 04:01:20;;;;;;;3.62;1.50;;;11.30;64.40;;;;;;2341188;53;21021;-66
2023/10/06 04:03:47;;;;;;;4.22;1.42;;;11.30;64.40;;;;;;2341178;53;20953;-68
2023/10/06 04:06:15;;;;;;;3.42;1.40;;;11.30;64.50;;;;;;2344670;53;21016;-67
2023/10/06 04:08:48;;;;;;;4.03;1.25;;;11.30;64.50;;;;;;2340051;53;22007;-66
2023/10/06 04:11:15;;;;;;;5.00;1.35;;;11.30;64.40;;;;;;2586677;52;20940;-66
2023/10/06 04:13:44;;;;;;;3.05;1.30;;;11.30;64.40;;;;;;2341083;53;22110;-68
2023/10/06 04:16:13;;;;;;;6.12;1.50;;;11.30;64.30;;;;;;2587131;52;21052;-67
2023/10/06 04:18:47;;;;;;;3.70;1.57;;;11.20;64.20;;;;;;2588064;52;20968;-67
2023/10/06 04:21:13;;;;;;;5.72;1.77;;;11.20;64.20;;;;;;2345427;53;20949;-66
2023/10/06 04:23:43;;;;;;;4.60;1.92;;;11.20;64.30;;;;;;2340261;53;21401;-67
2023/10/06 04:26:30;;;;;;;5.40;1.80;;;11.20;64.40;;;;;;2586886;52;20925;-68
2023/10/06 04:28:59;;;;;;;3.83;1.50;;;11.20;64.00;;;;;;2587632;52;20925;-70
2023/10/06 04:31:26;;;;;;;5.12;1.67;;;11.20;64.40;;;;;;2586546;52;20932;-70
2023/10/06 04:33:53;;;;;;;5.00;1.62;;;11.10;64.70;;;;;;2587846;52;21509;-69
2023/10/06 04:36:23;;;;;;;3.55;1.30;;;11.10;64.30;;;;;;2587512;52;20909;-69
2023/10/06 04:38:49;;;;;;;4.37;1.48;;;11.10;64.30;;;;;;2341003;53;21306;-69
2023/10/06 04:41:16;;;;;;;8.45;2.00;;;11.10;64.20;;;;;;2340802;53;20964;-69
2023/10/06 04:43:44;;;;;;;3.87;1.60;;;11.20;64.30;;;;;;2587766;52;20992;-69
2023/10/06 04:46:11;;;;;;;2.75;1.23;;;11.00;64.20;;;;;;2587142;52;20928;-69
2023/10/06 04:48:38;;;;;;;3.72;1.42;;;11.10;64.40;;;;;;2340969;53;21354;-69
2023/10/06 04:51:04;;;;;;;4.55;1.50;;;11.10;64.40;;;;;;2356596;53;20925;-69
2023/10/06 04:53:37;;;;;;;3.90;1.33;;;11.00;64.20;;;;;;2343825;53;20928;-68
2023/10/06 04:56:08;;;;;;;3.72;1.40;;;11.00;64.10;;;;;;2587523;52;21048;-69
2023/10/06 04:58:36;;;;;;;4.15;1.65;;;11.00;64.20;;;;;;2586696;52;20928;-68
2023/10/06 05:01:03;;;;;;;3.95;1.52;;;11.00;64.30;;;;;;2586685;52;20953;-68
2023/10/06 05:06:56;;;;;;;3.72;1.60;;;10.90;64.20;;;;;;2343964;53;21050;-68
2023/10/06 05:09:23;;;;;;;4.43;1.60;;;10.90;64.20;;;;;;2360478;53;20908;-68
2023/10/06 05:11:50;;;;;;;3.83;1.40;;;10.90;64.20;;;;;;2342033;53;20905;-68
2023/10/06 05:14:16;;;;;;;3.80;1.50;;;10.90;64.20;;;;;;2587345;52;20995;-68
2023/10/06 05:16:44;;;;;;;3.50;1.35;;;10.90;64.00;;;;;;2345033;53;21240;-70
2023/10/06 05:19:14;;;;;;;3.75;1.48;;;10.80;63.80;;;;;;2333123;53;20951;-69
2023/10/06 05:21:41;;;;;;;3.50;1.45;;;10.80;63.90;;;;;;2586536;52;20932;-69
2023/10/06 05:24:08;;;;;;;5.12;1.73;;;10.80;64.00;;;;;;2339443;54;21147;-69
2023/10/06 05:26:34;;;;;;;3.80;1.80;;;10.70;64.20;;;;;;2340144;54;21012;-70
2023/10/06 05:29:02;;;;;;;5.37;2.35;;;10.70;64.30;;;;;;2586636;52;20969;-70
2023/10/06 05:31:33;;;;;;;5.72;2.10;;;10.70;64.40;;;;;;2358654;53;21380;-69
2023/10/06 05:34:04;;;;;;;3.83;1.73;;;10.70;65.20;;;;;;2369230;53;20970;-69
2023/10/06 05:36:31;;;;;;;6.18;1.98;;;10.70;64.40;;;;;;2621493;52;20995;-69
2023/10/06 05:38:57;;;;;;;5.47;1.83;;;10.70;64.40;;;;;;2621446;52;20966;-69
2023/10/06 05:41:31;;;;;;;5.18;1.67;;;10.70;64.40;;;;;;2369207;53;20958;-69
2023/10/06 05:43:58;;;;;;;3.92;1.67;;;10.70;64.30;;;;;;2621210;52;21002;-69
2023/10/06 05:46:24;;;;;;;4.18;1.73;;;10.70;64.30;;;;;;2368894;53;21206;-69
2023/10/06 05:48:53;;;;;;;3.72;1.52;;;10.70;64.30;;;;;;2368785;53;21568;-69
2023/10/06 05:51:21;;;;;;;3.95;1.48;;;10.70;64.30;;;;;;2620321;52;20934;-69
2023/10/06 05:53:48;;;;;;;4.75;1.50;;;10.70;64.40;;;;;;2368598;53;20922;-69
2023/10/06 05:56:15;;;;;;;3.80;1.65;;;10.60;64.20;;;;;;2620946;52;20938;-69
2023/10/06 05:58:43;;;;;;;3.08;1.33;;;10.60;64.30;;;;;;2352920;53;21488;-69
2023/10/06 06:01:18;;;;;;;4.25;1.80;;;10.60;64.40;;;;;;2616803;52;20935;-69
2023/10/06 06:03:45;;;;;;;4.45;1.80;;;10.60;64.50;;;;;;2620447;52;21017;-69
2023/10/06 06:06:14;;;;;;;3.97;1.45;;;10.60;64.40;;;;;;2368981;53;20947;-69
2023/10/06 06:08:43;;;;;;;3.83;1.60;;;10.60;64.50;;;;;;2621476;52;20938;-69
2023/10/06 06:11:10;;;;;;;4.15;1.75;;;10.60;64.50;;;;;;2369353;53;20930;-69
2023/10/06 06:13:37;;;;;;;4.28;1.60;;;10.60;64.60;;;;;;2621289;52;20983;-69
2023/10/06 06:16:07;;;;;;;5.72;1.80;;;10.60;64.70;;;;;;2368155;53;20981;-69
2023/10/06 06:18:34;;;;;;;4.07;1.40;;;10.60;64.80;;;;;;2621824;52;20958;-69
2023/10/06 06:21:02;;;;;;;5.15;2.22;;;10.60;64.80;;;;;;2607021;52;21510;-69
2023/10/06 06:23:33;;;;;;;4.80;1.95;;;10.60;64.80;;;;;;2357943;53;21851;-68
2023/10/06 06:26:00;;;;;;;4.10;1.45;;;10.60;64.90;;;;;;2368810;53;20970;-69
2023/10/06 06:28:26;;;;;;;4.57;1.80;;;10.60;64.90;;;;;;2369194;53;20994;-69
2023/10/06 06:30:52;;;;;;;5.05;1.90;;;10.60;65.00;;;;;;2620977;52;21808;-69
2023/10/06 06:33:22;;;;;;;5.68;1.80;;;10.60;65.10;;;;;;2621048;52;20930;-70
2023/10/06 06:35:49;;;;;;;4.25;1.65;;;10.60;65.20;;;;;;2621152;52;20923;-69
2023/10/06 06:38:17;;;;;;;4.50;1.50;;;10.70;65.30;;;;;;2368757;53;20926;-66
2023/10/06 06:40:54;;;;;;;5.07;2.00;;;10.70;65.40;;;;;;2368301;53;21224;-69
2023/10/06 06:43:20;;;;;;;5.30;1.80;;;10.70;65.40;;;;;;2369021;53;20966;-69
2023/10/06 06:45:47;;;;;;;4.05;1.83;;;10.70;65.50;;;;;;2621187;52;20974;-69
2023/10/06 06:48:16;;;;;;;4.47;1.55;;;10.70;65.60;;;;;;2621482;52;21495;-70
2023/10/06 06:50:43;;;;;;;3.87;1.80;;;10.80;65.80;;;;;;2368615;53;21702;-69
2023/10/06 06:53:10;;;;;;;5.03;1.90;;;10.80;65.80;;;;;;2368610;53;20939;-69
2023/10/06 06:55:39;;;;;;;5.05;2.28;;;10.80;66.00;;;;;;2368568;53;20955;-70
2023/10/06 06:58:10;;;;;;;4.85;2.33;;;10.90;66.20;;;;;;2369127;53;20998;-69
2023/10/06 07:00:39;;;;;;;5.20;2.22;;;10.90;66.40;;;;;;2598178;52;21538;-69
2023/10/06 07:03:06;;;;;;;6.93;2.30;;;11.00;66.80;;;;;;2364356;53;20981;-69
2023/10/06 07:05:35;;;;;;;5.87;2.35;;;11.00;66.90;;;;;;2614620;52;20994;-70
2023/10/06 07:08:04;;;;;;;5.05;2.55;;;11.10;67.10;;;;;;2600774;52;20970;-69
2023/10/06 07:10:31;;;;;;;5.45;2.60;;;11.20;67.30;;;;;;2368981;53;21010;-69
2023/10/06 07:12:58;;;;;;;6.78;2.58;;;11.20;67.40;;;;;;2621400;52;21369;-69
2023/10/06 07:15:26;;;;;;;5.07;2.33;;;11.30;67.60;;;;;;2621410;52;20971;-69
2023/10/06 07:17:54;;;;;;;4.35;2.22;;;11.40;67.70;;;;;;2369070;53;20907;-70
2023/10/06 07:20:23;;;;;;;4.95;2.28;;;11.50;68.60;;;;;;2609270;52;21949;-69
2023/10/06 07:22:53;;;;;;;7.43;2.65;;;11.60;68.10;;;;;;2604888;52;20970;-69
2023/10/06 07:25:24;;;;;;;4.72;2.60;;;11.70;68.30;;;;;;2621287;52;21425;-69
2023/10/06 07:27:52;;;;;;;6.05;2.40;;;11.70;68.30;;;;;;2620999;52;20923;-68
2023/10/06 07:30:22;;;;;;;5.72;2.87;;;11.80;68.40;;;;;;2621561;52;20962;-70
2023/10/06 07:32:51;;;;;;;4.20;2.22;;;12.00;68.70;;;;;;2369423;53;20978;-70
2023/10/06 07:35:18;;;;;;;5.93;2.47;;;12.00;68.70;;;;;;2368575;53;20953;-69
2023/10/06 07:37:45;;;;;;;5.20;2.05;;;12.10;68.80;;;;;;2619698;52;20926;-69
2023/10/06 07:40:18;;;;;;;5.72;2.25;;;12.20;68.90;;;;;;2595199;52;20927;-70
2023/10/06 07:42:46;;;;;;;4.40;2.00;;;12.30;69.00;;;;;;2368390;53;20998;-72
2023/10/06 07:45:12;;;;;;;5.55;2.17;;;12.40;69.10;;;;;;2368797;53;21522;-69
2023/10/06 07:47:44;;;;;;;6.50;2.40;;;12.50;69.20;;;;;;2620171;52;21039;-71
2023/10/06 07:50:15;;;;;;;3.75;1.73;;;12.70;69.40;;;;;;2368791;53;21033;-70
2023/10/06 07:52:42;;;;;;;3.33;1.80;;;12.80;69.50;;;;;;2368170;53;20918;-71
2023/10/06 07:55:11;;;;;;;4.65;2.10;;;12.80;69.50;;;;;;2359567;53;20995;-70
2023/10/06 07:57:41;;;;;;;7.30;2.05;;;13.00;69.70;;;;;;2357970;53;21029;-70
2023/10/06 08:00:12;;;;;;;4.05;1.98;;;13.10;69.80;;;;;;2590981;52;20950;-69
2023/10/06 08:02:43;;;;;;;5.65;2.40;;;13.20;70.00;;;;;;2621506;52;20986;-72
2023/10/06 08:05:11;;;;;;;4.90;1.95;;;13.30;70.00;;;;;;2368778;53;21606;-70
2023/10/06 08:07:42;;;;;;;5.43;2.03;;;13.40;70.10;;;;;;2621544;52;21460;-70
2023/10/06 08:10:13;;;;;;;4.45;1.90;;;13.60;70.30;;;;;;2621596;52;20894;-68
2023/10/06 08:12:43;;;;;;;5.55;2.40;;;13.60;70.20;;;;;;2621750;52;20945;-66
2023/10/06 08:15:10;;;;;;;6.00;2.25;;;13.70;70.20;;;;;;2368784;53;20951;-71
2023/10/06 08:17:37;;;;;;;7.45;2.25;;;13.80;70.40;;;;;;2621101;52;21218;-70
2023/10/06 08:20:06;;;;;;;4.28;1.90;;;13.90;70.50;;;;;;2619649;52;20999;-67
2023/10/06 08:22:35;;;;;;;6.15;2.45;;;14.00;70.40;;;;;;2621350;52;20994;-71
2023/10/06 08:25:05;;;;;;;4.25;1.87;;;14.20;70.50;;;;;;2368636;53;21101;-70
2023/10/06 08:27:35;;;;;;;5.18;2.33;;;14.30;70.50;;;;;;2336081;54;20929;-73
2023/10/06 08:30:16;;;;;;;5.22;2.50;;;14.40;70.40;;;;;;2363365;53;21703;-70
2023/10/06 08:32:43;;;;;;;5.50;2.05;;;14.50;70.40;;;;;;2368369;53;20907;-66
2023/10/06 08:35:13;;;;;;;6.90;2.20;;;14.60;70.40;;;;;;2368888;53;20938;-67
2023/10/06 08:37:42;;;;;;;5.62;2.53;;;14.70;70.40;;;;;;2368578;53;20962;-68
2023/10/06 08:40:16;;;;;;;5.72;2.28;;;14.80;70.50;;;;;;2368850;53;21699;-68
2023/10/06 08:42:51;;;;;;;5.72;2.30;;;14.90;70.70;;;;;;2620973;52;20910;-68
2023/10/06 08:45:21;;;;;;;5.25;2.30;;;15.10;70.90;;;;;;2368551;53;21002;-67
2023/10/06 08:48:01;;;;;;;4.87;2.35;;;15.20;71.00;;;;;;2368476;53;20961;-68
2023/10/06 08:50:29;;;;;;;6.35;2.60;;;15.30;70.90;;;;;;2368311;53;21385;-70
2023/10/06 08:52:56;;;;;;;6.20;2.72;;;15.40;70.90;;;;;;2620758;52;20974;-66
2023/10/06 08:55:24;;;;;;;4.93;2.42;;;15.50;70.70;;;;;;2621566;52;20995;-68
2023/10/06 08:57:51;;;;;;;6.28;2.97;;;15.60;71.20;;;;;;2367965;53;20975;-67
2023/10/06 09:00:24;;;;;;;8.02;3.12;;;15.60;70.40;;;;;;2368822;53;20954;-68
2023/10/06 09:02:54;;;;;;;6.20;3.08;;;15.80;70.40;;;;;;2619624;52;20954;-67
2023/10/06 09:05:21;;;;;;;8.35;3.00;;;15.90;70.40;;;;;;2621108;52;20938;-69
2023/10/06 09:08:04;;;;;;;8.35;2.97;;;16.00;70.30;;;;;;2368658;53;21972;-68
2023/10/06 09:10:34;;;;;;;6.30;2.97;;;16.10;69.80;;;;;;2368783;53;20910;-68
2023/10/06 09:13:07;;;;;;;7.47;3.37;;;16.10;69.90;;;;;;2367771;53;21399;-69
2023/10/06 09:15:37;;;;;;;7.80;2.72;;;16.20;70.10;;;;;;2621157;52;20990;-69
2023/10/06 09:18:28;;;;;;;6.85;2.87;;;16.30;70.10;;;;;;2620087;52;20977;-69
2023/10/06 09:20:58;;;;;;;5.50;2.20;;;16.40;69.40;;;;;;2620358;52;20934;-69
2023/10/06 09:23:32;;;;;;;7.70;2.65;;;16.40;69.70;;;;;;2610368;52;21297;-68
2023/10/06 09:26:02;;;;;;;5.03;2.22;;;16.50;69.50;;;;;;2367596;53;20994;-67
2023/10/06 09:28:28;;;;;;;8.43;2.40;;;16.60;69.50;;;;;;2368035;53;21000;-67
2023/10/06 09:31:05;;;;;;;6.22;2.35;;;16.70;69.50;;;;;;2620555;52;21340;-72
2023/10/06 09:33:54;;;;;;;7.68;2.60;;;16.70;69.30;;;;;;2365030;53;20949;-68
2023/10/06 09:36:21;;;;;;;5.82;2.47;;;16.70;68.70;;;;;;2368958;53;20998;-71
2023/10/06 09:38:58;;;;;;;4.60;2.20;;;16.90;69.50;;;;;;2368027;53;21854;-67
2023/10/06 09:41:26;;;;;;;4.87;2.03;;;16.80;69.30;;;;;;2621233;52;20942;-68
2023/10/06 09:43:53;;;;;;;5.72;2.60;;;16.90;69.40;;;;;;2368795;53;21432;-68
2023/10/06 09:46:19;;;;;;;6.82;3.05;;;17.00;69.60;;;;;;2620813;52;20954;-68
2023/10/06 09:48:45;;;;;;;6.07;3.12;;;17.00;69.60;;;;;;2368955;53;21428;-67
2023/10/06 09:51:16;;;;;;;8.45;2.78;;;17.10;69.70;;;;;;2618583;52;20976;-69
2023/10/06 09:53:47;;;;;;;7.50;3.30;;;17.20;69.80;;;;;;2571755;53;21438;-68
2023/10/06 09:56:16;;;;;;;5.25;2.83;;;17.30;69.90;;;;;;2368422;53;21097;-68
2023/10/06 09:58:47;;;;;;;5.32;2.42;;;17.30;69.60;;;;;;2368978;53;21513;-72
2023/10/06 10:01:20;;;;;;;6.27;2.73;;;17.40;69.40;;;;;;2368888;53;20946;-71
2023/10/06 10:03:47;;;;;;;;;;;17.50;69.40;;;;;;2617456;52;20969;-68
2023/10/06 10:06:16;;;;;;;5.03;2.40;;;17.60;68.70;;;;;;2366065;53;20092;-69
2023/10/06 10:08:43;;;;;;;4.25;2.15;;;17.70;69.60;;;;;;2368296;53;20927;-69
2023/10/06 10:11:39;;;;;;;6.00;2.45;;;17.80;69.60;;;;;;2620918;52;21821;-69
2023/10/06 10:19:13;;;;;;;5.30;2.58;;;17.80;68.60;;;;;;2367918;53;20950;-68
2023/10/06 10:21:41;;;;;;;6.32;2.92;;;18.10;68.70;;;;;;2369305;53;20910;-68
2023/10/06 10:24:13;;;;;;;6.72;3.28;;;18.20;69.60;;;;;;2352094;53;21006;-71
2023/10/06 10:27:13;;;;;;;5.80;2.60;;;18.20;69.20;;;;;;2586550;52;20918;-68
2023/10/06 10:29:44;;;;;;;5.47;2.35;;;18.30;69.00;;;;;;2592791;52;21272;-71
2023/10/06 10:32:16;;;;;;;7.50;3.12;;;18.30;69.20;;;;;;2586951;52;21024;-69
2023/10/06 10:36:05;;;;;;;6.45;3.15;;;18.40;69.00;;;;;;2587072;52;21302;-68
2023/10/06 10:38:35;;;;;;;5.07;2.53;;;18.50;68.50;;;;;;2341238;54;21005;-69
2023/10/06 10:41:01;;;;;;;9.57;3.85;;;18.60;69.30;;;;;;2340178;54;20986;-67
2023/10/06 10:43:29;;;;;;;6.93;3.33;;;18.70;69.40;;;;;;2340714;54;21012;-68
2023/10/06 10:45:59;;;;;;;7.20;3.42;;;18.70;69.40;;;;;;2339644;54;21422;-67
2023/10/06 10:48:31;;;;;;;6.78;3.65;;;18.80;69.40;;;;;;2340775;54;20937;-70
2023/10/06 10:51:10;;;;;;;6.68;3.12;;;18.90;69.00;;;;;;2596270;52;20918;-67
2023/10/06 10:53:41;;;;;;;6.00;3.03;;;19.00;69.20;;;;;;2620984;52;20918;-69
2023/10/06 10:56:14;;;;;;;5.18;2.37;;;19.10;69.30;;;;;;2620299;52;21357;-67
2023/10/06 10:58:58;;;;;;;5.57;2.83;;;19.20;69.10;;;;;;2349974;53;20923;-66
2023/10/06 11:01:32;;;;;;;6.12;2.78;;;19.30;68.00;;;;;;2369456;53;20986;-68
2023/10/06 11:04:21;;;;;;;9.40;3.53;;;19.30;68.40;;;;;;2620537;52;20962;-67
2023/10/06 11:06:49;;;;;;;6.18;3.22;;;19.40;67.70;;;;;;2621134;52;20918;-67
2023/10/06 11:09:41;;;;;;;6.55;2.50;;;19.50;68.60;;;;;;2621042;52;20930;-69
2023/10/06 11:12:21;;;;;;;5.22;2.80;;;19.50;68.00;;;;;;2620360;52;20998;-69
2023/10/06 11:14:52;;;;;;;6.75;3.15;;;19.60;67.50;;;;;;2355007;53;20906;-68
2023/10/06 11:17:20;;;;;;;6.10;3.20;;;19.70;68.40;;;;;;2363994;53;21435;-68
2023/10/06 11:20:16;;;;;;;5.60;2.85;;;19.80;68.30;;;;;;2621137;52;20978;-70
2023/10/06 11:22:57;;;;;;;6.57;2.97;;;19.90;67.10;;;;;;2587658;52;20941;-68
2023/10/06 11:25:29;;;;;;;6.68;2.70;;;19.90;67.00;;;;;;2343162;53;20968;-68
2023/10/06 11:28:02;;;;;;;5.10;2.50;;;20.00;67.80;;;;;;2341342;53;21161;-68
2023/10/06 11:30:28;;;;;;;8.00;3.60;;;20.10;67.40;;;;;;2618041;52;20953;-69
2023/10/06 11:32:59;;;;;;;6.53;2.80;;;20.10;67.60;;;;;;2620395;52;20946;-68
2023/10/06 11:35:25;;;;;;;6.25;3.30;;;20.20;67.50;;;;;;2368762;53;21241;-69
2023/10/06 11:37:52;;;;;;;7.62;3.15;;;20.20;67.40;;;;;;2620685;52;21938;-67
2023/10/06 11:40:19;;;;;;;5.95;2.90;;;20.30;67.30;;;;;;2368088;53;20998;-67
2023/10/06 11:42:45;;;;;;;8.13;2.70;;;20.40;67.20;;;;;;2368749;53;21019;-68
2023/10/06 11:45:24;;;;;;;5.43;2.58;;;20.40;67.10;;;;;;2613197;52;20929;-68
2023/10/06 11:47:51;;;;;;;5.15;2.37;;;20.50;65.90;;;;;;2619100;52;21384;-68
2023/10/06 11:50:24;;;;;;;5.70;2.60;;;20.50;66.80;;;;;;2367829;53;21014;-68
2023/10/06 11:52:51;;;;;;;6.05;2.92;;;20.60;66.60;;;;;;2368660;53;20990;-68
2023/10/06 11:55:31;;;;;;;6.62;2.80;;;20.70;66.80;;;;;;2619981;52;21889;-67
2023/10/06 11:58:00;;;;;;;6.53;2.78;;;20.70;66.10;;;;;;2368716;53;20974;-66
2023/10/06 12:00:34;;;;;;;5.50;2.12;;;20.80;66.30;;;;;;2368679;53;20962;-67
2023/10/06 12:03:00;;;;;;;5.75;2.20;;;20.80;65.50;;;;;;2620338;52;20914;-69
2023/10/06 12:05:27;;;;;;;6.78;2.45;;;20.90;66.10;;;;;;2368117;53;20934;-68
2023/10/06 12:07:59;;;;;;;5.18;2.30;;;20.90;65.90;;;;;;2368949;53;21868;-67
2023/10/06 12:10:27;;;;;;;4.78;2.45;;;21.00;65.00;;;;;;2620994;52;20930;-68
2023/10/06 12:12:55;;;;;;;5.37;2.62;;;21.00;65.50;;;;;;2620707;52;20918;-68
2023/10/06 12:15:21;;;;;;;4.70;2.40;;;21.10;65.30;;;;;;2367713;53;20934;-69
2023/10/06 12:17:47;;;;;;;5.80;2.42;;;21.10;65.30;;;;;;2368440;53;20914;-67
2023/10/06 12:20:15;;;;;;;6.70;3.10;;;21.20;65.20;;;;;;2367773;53;22131;-69
2023/10/06 12:22:42;;;;;;;6.68;2.97;;;21.20;65.00;;;;;;2621064;52;20906;-69
2023/10/06 12:25:14;;;;;;;6.57;2.45;;;21.30;65.20;;;;;;2368464;53;20977;-67
2023/10/06 12:27:43;;;;;;;5.97;2.47;;;21.30;64.50;;;;;;2620933;52;20922;-69
2023/10/06 12:30:11;;;;;;;5.80;2.35;;;21.40;64.90;;;;;;2368736;53;20984;-69
2023/10/06 12:32:38;;;;;;;6.10;2.70;;;21.40;64.90;;;;;;2369036;53;21664;-69
2023/10/06 12:35:05;;;;;;;5.70;2.03;;;21.50;64.70;;;;;;2615955;52;20969;-70
2023/10/06 12:37:40;;;;;;;5.62;2.28;;;21.50;64.30;;;;;;2364018;53;21260;-71
2023/10/06 12:40:09;;;;;;;5.20;2.47;;;21.60;64.00;;;;;;2367842;53;20939;-69
2023/10/06 12:42:36;;;;;;;5.20;2.37;;;21.60;64.00;;;;;;2621234;52;20926;-71
2023/10/06 12:45:08;;;;;;;5.00;1.80;;;21.70;64.00;;;;;;2620342;52;21070;-71
2023/10/06 12:47:34;;;;;;;4.78;2.40;;;21.70;63.90;;;;;;2621186;52;20938;-69
2023/10/06 12:50:05;;;;;;;5.40;2.12;;;21.70;63.60;;;;;;2368870;53;20906;-69
2023/10/06 12:52:37;;;;;;;6.55;2.30;;;21.80;63.60;;;;;;2621189;52;21408;-68
2023/10/06 12:55:12;;;;;;;4.85;2.10;;;21.80;63.20;;;;;;2368152;53;20922;-72
2023/10/06 12:57:40;;;;;;;4.53;1.83;;;21.90;63.60;;;;;;2368586;53;21025;-69
2023/10/06 13:00:09;;;;;;;4.32;1.73;;;21.90;63.60;;;;;;2616875;52;20980;-68
2023/10/06 13:02:37;;;;;;;5.70;2.00;;;22.00;63.60;;;;;;2614207;52;20934;-67
2023/10/06 13:05:16;;;;;;;4.82;2.10;;;22.00;63.50;;;;;;2587281;53;20941;-72
2023/10/06 13:07:46;;;;;;;5.07;1.95;;;22.10;63.50;;;;;;2612019;52;20950;-67
2023/10/06 13:10:16;;;;;;;4.57;1.92;;;22.10;63.30;;;;;;2367875;53;21458;-70
2023/10/06 13:12:44;;;;;;;3.97;1.90;;;22.20;63.20;;;;;;2369683;53;20949;-69
2023/10/06 13:15:17;;;;;;;4.78;1.92;;;22.20;62.90;;;;;;2365785;53;20941;-68
2023/10/06 13:17:48;;;;;;;4.90;2.10;;;22.30;62.70;;;;;;2365960;53;20962;-69
2023/10/06 13:20:16;;;;;;;4.65;2.15;;;22.30;62.30;;;;;;2363431;53;20922;-69